Scenic, South Dakota
Current Conditions -  °F | °C
As of 5:17 PM on Monday 22 Dec 2014 (Local Time) from KRAP Reporting Station
Light Snow Light Snow  
Wind Chill: -9°   Ceiling: 1300
Heat Index: -1°   Visibility: 0.75mi
Dew Point: -3°   Wind: 36mph
Humidity: 85%   Direction: 330°NNW
Pressure: 29.6"   Gusts: 49mph
Location:  43.78°N, 102.56°W
Report Text: KRAP 230017Z 33031G43KT 3/4SM -SN BR FEW009 OVC013 M01/M03 A2960 RMK AO2 PK WND 33043/0008 P0000 T10061028
Loading
Personal Weather Stations






























Interactive Weather Map New forecast layout! Learn more

10-Day Weather Forecast

Advertisements
Track Severe Weather on mobile